sensor_id;sensor_type;location;lat;lon;timestamp;temperature;humidity
15217;DHT22;7711;46.634;14.318;2023-08-17T00:00:03;16.90;99.90
15217;DHT22;7711;46.634;14.318;2023-08-17T00:02:34;16.90;99.90
15217;DHT22;7711;46.634;14.318;2023-08-17T00:05:00;17.00;99.90
15217;DHT22;7711;46.634;14.318;2023-08-17T00:07:27;16.80;99.90
15217;DHT22;7711;46.634;14.318;2023-08-17T00:09:56;16.90;99.90
15217;DHT22;7711;46.634;14.318;2023-08-17T00:12:23;16.90;99.90
15217;DHT22;7711;46.634;14.318;2023-08-17T00:14:50;16.90;99.90
15217;DHT22;7711;46.634;14.318;2023-08-17T00:17:18;16.90;99.90
15217;DHT22;7711;46.634;14.318;2023-08-17T00:19:45;16.90;99.90
15217;DHT22;7711;46.634;14.318;2023-08-17T00:22:12;16.70;99.90
15217;DHT22;7711;46.634;14.318;2023-08-17T00:24:39;16.70;99.90
15217;DHT22;7711;46.634;14.318;2023-08-17T00:27:08;16.70;99.90
15217;DHT22;7711;46.634;14.318;2023-08-17T00:29:36;16.70;99.90
15217;DHT22;7711;46.634;14.318;2023-08-17T00:32:04;16.80;99.90
15217;DHT22;7711;46.634;14.318;2023-08-17T00:34:31;16.80;99.90
15217;DHT22;7711;46.634;14.318;2023-08-17T00:36:58;16.70;99.90
15217;DHT22;7711;46.634;14.318;2023-08-17T00:39:25;16.70;99.90
15217;DHT22;7711;46.634;14.318;2023-08-17T00:41:52;16.70;99.90
15217;DHT22;7711;46.634;14.318;2023-08-17T00:44:21;16.60;99.90
15217;DHT22;7711;46.634;14.318;2023-08-17T00:46:48;16.50;99.90
15217;DHT22;7711;46.634;14.318;2023-08-17T00:49:15;16.50;99.90
15217;DHT22;7711;46.634;14.318;2023-08-17T00:51:42;16.50;99.90
15217;DHT22;7711;46.634;14.318;2023-08-17T00:54:10;16.50;1.00
15217;DHT22;7711;46.634;14.318;2023-08-17T00:56:38;16.60;1.00
15217;DHT22;7711;46.634;14.318;2023-08-17T00:59:05;16.50;99.90
15217;DHT22;7711;46.634;14.318;2023-08-17T01:01:34;16.50;99.90
15217;DHT22;7711;46.634;14.318;2023-08-17T01:04:01;16.50;1.00
15217;DHT22;7711;46.634;14.318;2023-08-17T01:06:28;16.40;1.00
15217;DHT22;7711;46.634;14.318;2023-08-17T01:08:55;16.50;1.00
15217;DHT22;7711;46.634;14.318;2023-08-17T01:11:27;16.40;1.00
15217;DHT22;7711;46.634;14.318;2023-08-17T01:13:59;16.30;1.00
15217;DHT22;7711;46.634;14.318;2023-08-17T01:16:33;16.30;1.00
15217;DHT22;7711;46.634;14.318;2023-08-17T01:19:01;16.40;1.00
15217;DHT22;7711;46.634;14.318;2023-08-17T01:21:37;16.30;1.00
15217;DHT22;7711;46.634;14.318;2023-08-17T01:24:11;16.30;1.00
15217;DHT22;7711;46.634;14.318;2023-08-17T01:26:38;16.30;1.00
15217;DHT22;7711;46.634;14.318;2023-08-17T01:29:05;16.30;1.00
15217;DHT22;7711;46.634;14.318;2023-08-17T01:31:42;16.20;1.00
15217;DHT22;7711;46.634;14.318;2023-08-17T01:34:16;16.10;1.00
15217;DHT22;7711;46.634;14.318;2023-08-17T01:36:50;16.10;1.00
15217;DHT22;7711;46.634;14.318;2023-08-17T01:39:21;16.20;1.00
15217;DHT22;7711;46.634;14.318;2023-08-17T01:41:49;16.30;1.00
15217;DHT22;7711;46.634;14.318;2023-08-17T01:44:18;16.30;1.00
15217;DHT22;7711;46.634;14.318;2023-08-17T01:46:45;16.10;1.00
15217;DHT22;7711;46.634;14.318;2023-08-17T01:49:12;16.10;1.00
15217;DHT22;7711;46.634;14.318;2023-08-17T01:51:39;16.00;1.00
15217;DHT22;7711;46.634;14.318;2023-08-17T01:54:06;16.10;1.00
15217;DHT22;7711;46.634;14.318;2023-08-17T01:56:35;16.00;1.00
15217;DHT22;7711;46.634;14.318;2023-08-17T01:59:02;16.00;1.00
15217;DHT22;7711;46.634;14.318;2023-08-17T02:01:29;16.00;1.00
15217;DHT22;7711;46.634;14.318;2023-08-17T02:03:56;16.00;1.00
15217;DHT22;7711;46.634;14.318;2023-08-17T02:06:23;16.00;1.00
15217;DHT22;7711;46.634;14.318;2023-08-17T02:08:50;15.90;1.00
15217;DHT22;7711;46.634;14.318;2023-08-17T02:11:17;15.80;1.00
15217;DHT22;7711;46.634;14.318;2023-08-17T02:13:45;15.70;1.00
15217;DHT22;7711;46.634;14.318;2023-08-17T02:16:12;15.80;1.00
15217;DHT22;7711;46.634;14.318;2023-08-17T02:18:39;15.70;1.00
15217;DHT22;7711;46.634;14.318;2023-08-17T02:21:06;15.70;1.00
15217;DHT22;7711;46.634;14.318;2023-08-17T02:23:34;15.70;1.00
15217;DHT22;7711;46.634;14.318;2023-08-17T02:26:01;15.70;1.00
15217;DHT22;7711;46.634;14.318;2023-08-17T02:28:28;15.70;1.00
15217;DHT22;7711;46.634;14.318;2023-08-17T02:30:57;15.70;1.00
15217;DHT22;7711;46.634;14.318;2023-08-17T02:33:24;15.70;1.00
15217;DHT22;7711;46.634;14.318;2023-08-17T02:35:52;15.70;1.00
15217;DHT22;7711;46.634;14.318;2023-08-17T02:38:19;15.60;1.00
15217;DHT22;7711;46.634;14.318;2023-08-17T02:40:48;15.60;1.00
15217;DHT22;7711;46.634;14.318;2023-08-17T02:43:15;15.60;1.00
15217;DHT22;7711;46.634;14.318;2023-08-17T02:45:42;15.60;1.00
15217;DHT22;7711;46.634;14.318;2023-08-17T02:48:10;15.60;1.00
15217;DHT22;7711;46.634;14.318;2023-08-17T02:50:37;15.60;1.00
15217;DHT22;7711;46.634;14.318;2023-08-17T02:53:05;15.60;1.00
15217;DHT22;7711;46.634;14.318;2023-08-17T02:55:32;15.60;1.00
15217;DHT22;7711;46.634;14.318;2023-08-17T02:57:59;15.60;1.00
15217;DHT22;7711;46.634;14.318;2023-08-17T03:00:26;15.60;1.00
15217;DHT22;7711;46.634;14.318;2023-08-17T03:02:53;15.60;1.00
15217;DHT22;7711;46.634;14.318;2023-08-17T03:05:21;15.60;1.00
15217;DHT22;7711;46.634;14.318;2023-08-17T03:07:48;15.50;1.00
15217;DHT22;7711;46.634;14.318;2023-08-17T03:10:15;15.50;1.00
15217;DHT22;7711;46.634;14.318;2023-08-17T03:12:42;15.40;1.00
15217;DHT22;7711;46.634;14.318;2023-08-17T03:15:09;15.50;1.00
15217;DHT22;7711;46.634;14.318;2023-08-17T03:17:36;15.50;1.00
15217;DHT22;7711;46.634;14.318;2023-08-17T03:20:04;15.50;1.00
15217;DHT22;7711;46.634;14.318;2023-08-17T03:22:33;15.60;1.00
15217;DHT22;7711;46.634;14.318;2023-08-17T03:25:00;15.50;1.00
15217;DHT22;7711;46.634;14.318;2023-08-17T03:27:28;15.40;1.00
15217;DHT22;7711;46.634;14.318;2023-08-17T03:29:55;15.40;1.00
15217;DHT22;7711;46.634;14.318;2023-08-17T03:32:22;15.40;1.00
15217;DHT22;7711;46.634;14.318;2023-08-17T03:34:49;15.30;1.00
15217;DHT22;7711;46.634;14.318;2023-08-17T03:37:16;15.30;1.00
15217;DHT22;7711;46.634;14.318;2023-08-17T03:39:45;15.30;1.00
15217;DHT22;7711;46.634;14.318;2023-08-17T03:42:11;15.30;1.00
15217;DHT22;7711;46.634;14.318;2023-08-17T03:44:39;15.40;1.00
15217;DHT22;7711;46.634;14.318;2023-08-17T03:47:06;15.40;1.00
15217;DHT22;7711;46.634;14.318;2023-08-17T03:49:33;15.40;1.00
15217;DHT22;7711;46.634;14.318;2023-08-17T03:51:59;15.40;1.00
15217;DHT22;7711;46.634;14.318;2023-08-17T03:54:26;15.40;1.00
15217;DHT22;7711;46.634;14.318;2023-08-17T03:56:55;15.30;1.00
15217;DHT22;7711;46.634;14.318;2023-08-17T03:59:22;15.30;1.00
15217;DHT22;7711;46.634;14.318;2023-08-17T04:01:50;15.30;1.00
15217;DHT22;7711;46.634;14.318;2023-08-17T04:04:17;15.30;1.00
15217;DHT22;7711;46.634;14.318;2023-08-17T04:06:44;15.40;1.00
15217;DHT22;7711;46.634;14.318;2023-08-17T04:09:11;15.50;1.00
15217;DHT22;7711;46.634;14.318;2023-08-17T04:11:38;15.50;1.00
15217;DHT22;7711;46.634;14.318;2023-08-17T04:14:06;15.60;1.00
15217;DHT22;7711;46.634;14.318;2023-08-17T04:16:34;15.50;1.00
15217;DHT22;7711;46.634;14.318;2023-08-17T04:19:01;15.60;1.00
15217;DHT22;7711;46.634;14.318;2023-08-17T04:21:28;15.70;1.00
15217;DHT22;7711;46.634;14.318;2023-08-17T04:23:55;15.80;1.00
15217;DHT22;7711;46.634;14.318;2023-08-17T04:26:22;15.80;1.00
15217;DHT22;7711;46.634;14.318;2023-08-17T04:28:50;15.80;1.00
15217;DHT22;7711;46.634;14.318;2023-08-17T04:31:18;15.80;1.00
15217;DHT22;7711;46.634;14.318;2023-08-17T04:33:45;16.00;1.00
15217;DHT22;7711;46.634;14.318;2023-08-17T04:36:12;15.90;1.00
15217;DHT22;7711;46.634;14.318;2023-08-17T04:38:39;16.00;1.00
15217;DHT22;7711;46.634;14.318;2023-08-17T04:41:06;16.00;1.00
15217;DHT22;7711;46.634;14.318;2023-08-17T04:43:33;16.00;1.00
15217;DHT22;7711;46.634;14.318;2023-08-17T04:46:00;15.90;1.00
15217;DHT22;7711;46.634;14.318;2023-08-17T04:48:28;15.90;1.00
15217;DHT22;7711;46.634;14.318;2023-08-17T04:50:55;15.90;1.00
15217;DHT22;7711;46.634;14.318;2023-08-17T04:53:22;15.90;1.00
15217;DHT22;7711;46.634;14.318;2023-08-17T04:55:49;15.90;1.00
15217;DHT22;7711;46.634;14.318;2023-08-17T04:58:16;15.90;1.00
15217;DHT22;7711;46.634;14.318;2023-08-17T05:00:43;16.00;1.00
15217;DHT22;7711;46.634;14.318;2023-08-17T05:03:10;16.10;1.00
15217;DHT22;7711;46.634;14.318;2023-08-17T05:05:39;16.20;1.00
15217;DHT22;7711;46.634;14.318;2023-08-17T05:08:05;16.20;1.00
15217;DHT22;7711;46.634;14.318;2023-08-17T05:10:32;16.30;1.00
15217;DHT22;7711;46.634;14.318;2023-08-17T05:13:00;16.30;1.00
15217;DHT22;7711;46.634;14.318;2023-08-17T05:15:27;16.30;1.00
15217;DHT22;7711;46.634;14.318;2023-08-17T05:17:54;16.50;1.00
15217;DHT22;7711;46.634;14.318;2023-08-17T05:20:20;16.40;1.00
15217;DHT22;7711;46.634;14.318;2023-08-17T05:22:49;16.40;1.00
15217;DHT22;7711;46.634;14.318;2023-08-17T05:25:16;16.50;1.00
15217;DHT22;7711;46.634;14.318;2023-08-17T05:27:43;16.60;1.00
15217;DHT22;7711;46.634;14.318;2023-08-17T05:30:11;16.70;1.00
15217;DHT22;7711;46.634;14.318;2023-08-17T05:32:40;16.60;1.00
15217;DHT22;7711;46.634;14.318;2023-08-17T05:35:07;16.70;1.00
15217;DHT22;7711;46.634;14.318;2023-08-17T05:37:34;16.90;1.00
15217;DHT22;7711;46.634;14.318;2023-08-17T05:40:03;17.10;1.00
15217;DHT22;7711;46.634;14.318;2023-08-17T05:42:31;17.10;1.00
15217;DHT22;7711;46.634;14.318;2023-08-17T05:44:58;17.10;1.00
15217;DHT22;7711;46.634;14.318;2023-08-17T05:47:25;17.20;99.90
15217;DHT22;7711;46.634;14.318;2023-08-17T05:49:52;17.10;99.90
15217;DHT22;7711;46.634;14.318;2023-08-17T05:52:19;17.10;99.90
15217;DHT22;7711;46.634;14.318;2023-08-17T05:54:46;17.10;99.90
15217;DHT22;7711;46.634;14.318;2023-08-17T05:57:14;17.20;99.90
15217;DHT22;7711;46.634;14.318;2023-08-17T05:59:41;17.30;99.90
15217;DHT22;7711;46.634;14.318;2023-08-17T06:02:08;17.40;99.90
15217;DHT22;7711;46.634;14.318;2023-08-17T06:04:36;17.50;99.90
15217;DHT22;7711;46.634;14.318;2023-08-17T06:07:03;17.60;99.90
15217;DHT22;7711;46.634;14.318;2023-08-17T06:09:30;17.60;99.90
15217;DHT22;7711;46.634;14.318;2023-08-17T06:11:56;17.60;99.90
15217;DHT22;7711;46.634;14.318;2023-08-17T06:14:25;17.80;99.90
15217;DHT22;7711;46.634;14.318;2023-08-17T06:16:52;17.70;99.90
15217;DHT22;7711;46.634;14.318;2023-08-17T06:19:19;17.70;99.90
15217;DHT22;7711;46.634;14.318;2023-08-17T06:21:46;17.60;99.90
15217;DHT22;7711;46.634;14.318;2023-08-17T06:24:13;17.70;99.90
15217;DHT22;7711;46.634;14.318;2023-08-17T06:26:40;17.80;99.90
15217;DHT22;7711;46.634;14.318;2023-08-17T06:29:07;17.70;99.90
15217;DHT22;7711;46.634;14.318;2023-08-17T06:31:35;17.80;99.90
15217;DHT22;7711;46.634;14.318;2023-08-17T06:34:02;18.00;99.90
15217;DHT22;7711;46.634;14.318;2023-08-17T06:36:31;18.00;99.90
15217;DHT22;7711;46.634;14.318;2023-08-17T06:38:58;17.90;99.90
15217;DHT22;7711;46.634;14.318;2023-08-17T06:41:25;18.00;99.90
15217;DHT22;7711;46.634;14.318;2023-08-17T06:43:52;18.10;99.90
15217;DHT22;7711;46.634;14.318;2023-08-17T06:46:19;18.30;99.90
15217;DHT22;7711;46.634;14.318;2023-08-17T06:48:48;18.50;99.90
15217;DHT22;7711;46.634;14.318;2023-08-17T06:51:15;18.50;99.90
15217;DHT22;7711;46.634;14.318;2023-08-17T06:53:42;18.60;99.90
15217;DHT22;7711;46.634;14.318;2023-08-17T06:56:09;18.80;99.90
15217;DHT22;7711;46.634;14.318;2023-08-17T06:58:36;18.90;99.90
15217;DHT22;7711;46.634;14.318;2023-08-17T07:01:03;19.20;99.90
15217;DHT22;7711;46.634;14.318;2023-08-17T07:03:30;19.50;99.90
15217;DHT22;7711;46.634;14.318;2023-08-17T07:05:59;19.60;99.90
15217;DHT22;7711;46.634;14.318;2023-08-17T07:08:26;19.80;99.90
15217;DHT22;7711;46.634;14.318;2023-08-17T07:10:53;19.60;99.90
15217;DHT22;7711;46.634;14.318;2023-08-17T07:13:20;19.60;99.90
15217;DHT22;7711;46.634;14.318;2023-08-17T07:15:47;19.60;99.90
15217;DHT22;7711;46.634;14.318;2023-08-17T07:18:14;19.70;99.90
15217;DHT22;7711;46.634;14.318;2023-08-17T07:20:41;19.80;99.90
15217;DHT22;7711;46.634;14.318;2023-08-17T07:23:10;20.00;99.90
15217;DHT22;7711;46.634;14.318;2023-08-17T07:25:36;20.10;99.90
15217;DHT22;7711;46.634;14.318;2023-08-17T07:28:04;20.20;99.90
15217;DHT22;7711;46.634;14.318;2023-08-17T07:30:31;20.50;99.90
15217;DHT22;7711;46.634;14.318;2023-08-17T07:32:58;20.80;99.90
15217;DHT22;7711;46.634;14.318;2023-08-17T07:35:25;20.50;99.90
15217;DHT22;7711;46.634;14.318;2023-08-17T07:37:52;20.50;99.90
15217;DHT22;7711;46.634;14.318;2023-08-17T07:40:21;20.40;99.90
15217;DHT22;7711;46.634;14.318;2023-08-17T07:42:48;20.10;99.90
15217;DHT22;7711;46.634;14.318;2023-08-17T07:45:15;20.30;99.90
15217;DHT22;7711;46.634;14.318;2023-08-17T07:47:45;20.60;99.90
15217;DHT22;7711;46.634;14.318;2023-08-17T07:50:12;20.70;99.90
15217;DHT22;7711;46.634;14.318;2023-08-17T07:52:40;21.10;99.90
15217;DHT22;7711;46.634;14.318;2023-08-17T07:55:07;21.20;99.90
15217;DHT22;7711;46.634;14.318;2023-08-17T07:57:36;21.40;99.90
15217;DHT22;7711;46.634;14.318;2023-08-17T08:00:05;21.70;99.90
15217;DHT22;7711;46.634;14.318;2023-08-17T08:02:33;21.60;99.90
15217;DHT22;7711;46.634;14.318;2023-08-17T08:05:00;21.80;99.90
15217;DHT22;7711;46.634;14.318;2023-08-17T08:07:27;21.70;99.90
15217;DHT22;7711;46.634;14.318;2023-08-17T08:09:55;21.30;99.90
15217;DHT22;7711;46.634;14.318;2023-08-17T08:12:23;21.60;99.90
15217;DHT22;7711;46.634;14.318;2023-08-17T08:14:51;21.60;99.90
15217;DHT22;7711;46.634;14.318;2023-08-17T08:17:19;21.80;99.90
15217;DHT22;7711;46.634;14.318;2023-08-17T08:19:46;22.10;99.90
15217;DHT22;7711;46.634;14.318;2023-08-17T08:22:14;22.60;99.90
15217;DHT22;7711;46.634;14.318;2023-08-17T08:24:42;22.80;99.90
15217;DHT22;7711;46.634;14.318;2023-08-17T08:27:09;22.50;99.90
15217;DHT22;7711;46.634;14.318;2023-08-17T08:29:37;22.80;99.90
15217;DHT22;7711;46.634;14.318;2023-08-17T08:32:06;22.80;99.90
15217;DHT22;7711;46.634;14.318;2023-08-17T08:34:33;22.80;99.90
15217;DHT22;7711;46.634;14.318;2023-08-17T08:37:01;22.90;99.90
15217;DHT22;7711;46.634;14.318;2023-08-17T08:39:29;22.80;99.90
15217;DHT22;7711;46.634;14.318;2023-08-17T08:41:56;22.30;99.90
15217;DHT22;7711;46.634;14.318;2023-08-17T08:44:24;22.10;99.90
15217;DHT22;7711;46.634;14.318;2023-08-17T08:46:54;22.30;99.90
15217;DHT22;7711;46.634;14.318;2023-08-17T08:49:25;22.30;99.90
15217;DHT22;7711;46.634;14.318;2023-08-17T08:51:53;22.30;99.90
15217;DHT22;7711;46.634;14.318;2023-08-17T08:54:26;22.40;99.90
15217;DHT22;7711;46.634;14.318;2023-08-17T08:57:00;22.90;99.90
15217;DHT22;7711;46.634;14.318;2023-08-17T08:59:28;22.90;99.90
15217;DHT22;7711;46.634;14.318;2023-08-17T09:01:57;22.70;99.90
15217;DHT22;7711;46.634;14.318;2023-08-17T09:04:27;22.80;99.90
15217;DHT22;7711;46.634;14.318;2023-08-17T09:06:58;23.00;99.90
15217;DHT22;7711;46.634;14.318;2023-08-17T09:09:26;23.00;99.90
15217;DHT22;7711;46.634;14.318;2023-08-17T09:11:54;22.90;99.90
15217;DHT22;7711;46.634;14.318;2023-08-17T09:14:22;23.20;99.90
15217;DHT22;7711;46.634;14.318;2023-08-17T09:16:49;23.40;99.90
15217;DHT22;7711;46.634;14.318;2023-08-17T09:19:18;23.40;99.90
15217;DHT22;7711;46.634;14.318;2023-08-17T09:21:47;23.10;99.90
15217;DHT22;7711;46.634;14.318;2023-08-17T09:24:14;22.60;99.90
15217;DHT22;7711;46.634;14.318;2023-08-17T09:26:42;22.90;99.90
15217;DHT22;7711;46.634;14.318;2023-08-17T09:29:20;23.10;99.90
15217;DHT22;7711;46.634;14.318;2023-08-17T09:31:48;23.10;99.90
15217;DHT22;7711;46.634;14.318;2023-08-17T09:34:16;23.40;99.90
15217;DHT22;7711;46.634;14.318;2023-08-17T09:36:47;23.10;99.90
15217;DHT22;7711;46.634;14.318;2023-08-17T09:39:16;23.40;99.90
15217;DHT22;7711;46.634;14.318;2023-08-17T09:41:44;23.70;99.90
15217;DHT22;7711;46.634;14.318;2023-08-17T09:44:12;23.60;99.90
15217;DHT22;7711;46.634;14.318;2023-08-17T09:46:42;23.80;99.90
15217;DHT22;7711;46.634;14.318;2023-08-17T09:49:10;24.00;99.90
15217;DHT22;7711;46.634;14.318;2023-08-17T09:51:38;24.20;99.90
15217;DHT22;7711;46.634;14.318;2023-08-17T09:54:07;24.40;99.90
15217;DHT22;7711;46.634;14.318;2023-08-17T09:56:35;24.60;99.90
15217;DHT22;7711;46.634;14.318;2023-08-17T09:59:03;24.70;99.90
15217;DHT22;7711;46.634;14.318;2023-08-17T10:01:30;24.70;99.90
15217;DHT22;7711;46.634;14.318;2023-08-17T10:03:59;24.50;99.90
15217;DHT22;7711;46.634;14.318;2023-08-17T10:06:29;24.20;99.90
15217;DHT22;7711;46.634;14.318;2023-08-17T10:08:58;24.20;99.90
15217;DHT22;7711;46.634;14.318;2023-08-17T10:11:30;24.40;99.90
15217;DHT22;7711;46.634;14.318;2023-08-17T10:14:02;24.80;99.90
15217;DHT22;7711;46.634;14.318;2023-08-17T10:16:39;25.10;99.90
15217;DHT22;7711;46.634;14.318;2023-08-17T10:19:14;25.20;99.90
15217;DHT22;7711;46.634;14.318;2023-08-17T10:21:46;25.40;99.90
15217;DHT22;7711;46.634;14.318;2023-08-17T10:24:14;25.60;99.90
15217;DHT22;7711;46.634;14.318;2023-08-17T10:26:44;25.80;99.90
15217;DHT22;7711;46.634;14.318;2023-08-17T10:29:12;25.60;99.90
15217;DHT22;7711;46.634;14.318;2023-08-17T10:31:39;25.70;99.90
15217;DHT22;7711;46.634;14.318;2023-08-17T10:34:10;25.60;99.90
15217;DHT22;7711;46.634;14.318;2023-08-17T10:36:38;25.40;99.90
15217;DHT22;7711;46.634;14.318;2023-08-17T10:39:22;25.10;99.90
15217;DHT22;7711;46.634;14.318;2023-08-17T10:41:51;25.00;99.90
15217;DHT22;7711;46.634;14.318;2023-08-17T10:44:38;25.30;99.90
15217;DHT22;7711;46.634;14.318;2023-08-17T10:47:19;25.40;99.90
15217;DHT22;7711;46.634;14.318;2023-08-17T10:49:48;25.50;99.90
15217;DHT22;7711;46.634;14.318;2023-08-17T10:52:29;25.60;99.90
15217;DHT22;7711;46.634;14.318;2023-08-17T10:54:58;25.80;99.90
15217;DHT22;7711;46.634;14.318;2023-08-17T10:57:36;26.00;99.90
15217;DHT22;7711;46.634;14.318;2023-08-17T11:00:15;26.20;99.90
15217;DHT22;7711;46.634;14.318;2023-08-17T11:02:51;26.60;99.90
15217;DHT22;7711;46.634;14.318;2023-08-17T11:05:34;26.10;99.90
15217;DHT22;7711;46.634;14.318;2023-08-17T11:08:02;26.00;99.90
15217;DHT22;7711;46.634;14.318;2023-08-17T11:10:30;26.50;99.90
15217;DHT22;7711;46.634;14.318;2023-08-17T11:12:59;26.40;99.90
15217;DHT22;7711;46.634;14.318;2023-08-17T11:15:36;26.70;99.90
15217;DHT22;7711;46.634;14.318;2023-08-17T11:18:06;26.80;99.90
15217;DHT22;7711;46.634;14.318;2023-08-17T11:20:34;27.00;99.90
15217;DHT22;7711;46.634;14.318;2023-08-17T11:23:02;26.50;99.90
15217;DHT22;7711;46.634;14.318;2023-08-17T11:25:32;26.40;99.90
15217;DHT22;7711;46.634;14.318;2023-08-17T11:28:01;26.60;99.90
15217;DHT22;7711;46.634;14.318;2023-08-17T11:30:29;26.90;99.90
15217;DHT22;7711;46.634;14.318;2023-08-17T11:32:58;27.10;99.90
15217;DHT22;7711;46.634;14.318;2023-08-17T11:35:25;27.40;99.90
15217;DHT22;7711;46.634;14.318;2023-08-17T11:37:52;27.40;99.90
15217;DHT22;7711;46.634;14.318;2023-08-17T11:40:20;27.70;99.90
15217;DHT22;7711;46.634;14.318;2023-08-17T11:42:48;27.50;99.90
15217;DHT22;7711;46.634;14.318;2023-08-17T11:45:18;27.70;99.90
15217;DHT22;7711;46.634;14.318;2023-08-17T11:47:47;27.90;99.90
15217;DHT22;7711;46.634;14.318;2023-08-17T11:50:14;27.70;99.90
15217;DHT22;7711;46.634;14.318;2023-08-17T11:52:42;28.00;99.90
15217;DHT22;7711;46.634;14.318;2023-08-17T11:55:10;27.90;99.90
15217;DHT22;7711;46.634;14.318;2023-08-17T11:57:37;28.10;99.90
15217;DHT22;7711;46.634;14.318;2023-08-17T12:00:06;28.20;99.90
15217;DHT22;7711;46.634;14.318;2023-08-17T12:02:37;28.00;99.90
15217;DHT22;7711;46.634;14.318;2023-08-17T12:05:09;27.90;99.90
15217;DHT22;7711;46.634;14.318;2023-08-17T12:07:36;28.00;99.90
15217;DHT22;7711;46.634;14.318;2023-08-17T12:10:05;28.20;99.90
15217;DHT22;7711;46.634;14.318;2023-08-17T12:12:37;28.20;99.90
15217;DHT22;7711;46.634;14.318;2023-08-17T12:15:05;28.40;99.90
15217;DHT22;7711;46.634;14.318;2023-08-17T12:17:33;28.50;99.90
15217;DHT22;7711;46.634;14.318;2023-08-17T12:20:04;28.30;99.90
15217;DHT22;7711;46.634;14.318;2023-08-17T12:22:31;28.50;99.90
15217;DHT22;7711;46.634;14.318;2023-08-17T12:24:59;28.30;99.90
15217;DHT22;7711;46.634;14.318;2023-08-17T12:27:26;28.60;99.90
15217;DHT22;7711;46.634;14.318;2023-08-17T12:29:53;28.90;99.90
15217;DHT22;7711;46.634;14.318;2023-08-17T12:32:21;29.50;99.90
15217;DHT22;7711;46.634;14.318;2023-08-17T12:34:49;29.70;99.90
15217;DHT22;7711;46.634;14.318;2023-08-17T12:37:21;29.60;99.90
15217;DHT22;7711;46.634;14.318;2023-08-17T12:39:49;29.70;99.90
15217;DHT22;7711;46.634;14.318;2023-08-17T12:42:16;29.90;99.90
15217;DHT22;7711;46.634;14.318;2023-08-17T12:44:44;30.40;99.90
15217;DHT22;7711;46.634;14.318;2023-08-17T12:47:11;30.20;99.90
15217;DHT22;7711;46.634;14.318;2023-08-17T12:49:40;30.00;99.90
15217;DHT22;7711;46.634;14.318;2023-08-17T12:52:07;30.00;99.90
15217;DHT22;7711;46.634;14.318;2023-08-17T12:54:36;29.50;99.90
15217;DHT22;7711;46.634;14.318;2023-08-17T12:57:04;30.00;99.90
15217;DHT22;7711;46.634;14.318;2023-08-17T12:59:32;29.90;99.90
15217;DHT22;7711;46.634;14.318;2023-08-17T13:02:00;30.10;99.90
15217;DHT22;7711;46.634;14.318;2023-08-17T13:04:27;30.40;99.90
15217;DHT22;7711;46.634;14.318;2023-08-17T13:06:54;30.60;99.90
15217;DHT22;7711;46.634;14.318;2023-08-17T13:09:22;31.00;99.90
15217;DHT22;7711;46.634;14.318;2023-08-17T13:11:51;31.10;99.90
15217;DHT22;7711;46.634;14.318;2023-08-17T13:14:18;31.20;99.90
15217;DHT22;7711;46.634;14.318;2023-08-17T13:16:46;31.00;99.90
15217;DHT22;7711;46.634;14.318;2023-08-17T13:19:13;31.50;99.90
15217;DHT22;7711;46.634;14.318;2023-08-17T13:21:41;31.70;99.90
15217;DHT22;7711;46.634;14.318;2023-08-17T13:24:08;32.10;99.90
15217;DHT22;7711;46.634;14.318;2023-08-17T13:26:36;32.60;98.80
15217;DHT22;7711;46.634;14.318;2023-08-17T13:29:05;32.50;95.90
15217;DHT22;7711;46.634;14.318;2023-08-17T13:31:32;33.30;95.10
15217;DHT22;7711;46.634;14.318;2023-08-17T13:33:59;33.60;92.20
15217;DHT22;7711;46.634;14.318;2023-08-17T13:36:26;34.10;88.10
15217;DHT22;7711;46.634;14.318;2023-08-17T13:38:55;33.10;84.00
15217;DHT22;7711;46.634;14.318;2023-08-17T13:41:22;33.70;84.00
15217;DHT22;7711;46.634;14.318;2023-08-17T13:43:51;34.10;76.60
15217;DHT22;7711;46.634;14.318;2023-08-17T13:46:20;34.60;71.30
15217;DHT22;7711;46.634;14.318;2023-08-17T13:48:47;34.80;67.70
15217;DHT22;7711;46.634;14.318;2023-08-17T13:51:15;34.80;64.40
15217;DHT22;7711;46.634;14.318;2023-08-17T13:53:42;34.40;53.90
15217;DHT22;7711;46.634;14.318;2023-08-17T13:56:10;34.70;54.80
15217;DHT22;7711;46.634;14.318;2023-08-17T13:58:37;34.60;50.40
15217;DHT22;7711;46.634;14.318;2023-08-17T14:01:04;34.70;53.40
15217;DHT22;7711;46.634;14.318;2023-08-17T14:03:33;35.00;47.20
15217;DHT22;7711;46.634;14.318;2023-08-17T14:06:00;34.30;51.00
15217;DHT22;7711;46.634;14.318;2023-08-17T14:08:28;34.80;49.00
15217;DHT22;7711;46.634;14.318;2023-08-17T14:10:55;35.30;35.30
15217;DHT22;7711;46.634;14.318;2023-08-17T14:13:22;35.70;48.00
15217;DHT22;7711;46.634;14.318;2023-08-17T14:15:50;36.10;41.30
15217;DHT22;7711;46.634;14.318;2023-08-17T14:18:17;36.10;43.50
15217;DHT22;7711;46.634;14.318;2023-08-17T14:20:46;36.20;40.90
15217;DHT22;7711;46.634;14.318;2023-08-17T14:23:13;36.00;36.20
15217;DHT22;7711;46.634;14.318;2023-08-17T14:25:41;36.20;36.40
15217;DHT22;7711;46.634;14.318;2023-08-17T14:28:09;35.90;32.60
15217;DHT22;7711;46.634;14.318;2023-08-17T14:30:36;36.10;32.20
15217;DHT22;7711;46.634;14.318;2023-08-17T14:33:04;36.30;29.60
15217;DHT22;7711;46.634;14.318;2023-08-17T14:35:34;36.60;27.40
15217;DHT22;7711;46.634;14.318;2023-08-17T14:38:03;36.20;25.50
15217;DHT22;7711;46.634;14.318;2023-08-17T14:40:31;34.50;29.20
15217;DHT22;7711;46.634;14.318;2023-08-17T14:42:59;34.10;32.40
15217;DHT22;7711;46.634;14.318;2023-08-17T14:45:27;33.00;30.40
15217;DHT22;7711;46.634;14.318;2023-08-17T14:47:55;32.30;38.90
15217;DHT22;7711;46.634;14.318;2023-08-17T14:50:25;32.00;42.40
15217;DHT22;7711;46.634;14.318;2023-08-17T14:52:52;32.60;45.40
15217;DHT22;7711;46.634;14.318;2023-08-17T14:55:21;33.00;42.40
15217;DHT22;7711;46.634;14.318;2023-08-17T14:57:49;34.40;42.90
15217;DHT22;7711;46.634;14.318;2023-08-17T15:00:17;34.70;38.70
15217;DHT22;7711;46.634;14.318;2023-08-17T15:02:45;35.00;34.60
15217;DHT22;7711;46.634;14.318;2023-08-17T15:05:13;35.50;35.00
15217;DHT22;7711;46.634;14.318;2023-08-17T15:07:41;35.30;26.60
15217;DHT22;7711;46.634;14.318;2023-08-17T15:10:09;34.70;29.50
15217;DHT22;7711;46.634;14.318;2023-08-17T15:12:37;34.10;26.80
15217;DHT22;7711;46.634;14.318;2023-08-17T15:15:06;34.80;28.80
15217;DHT22;7711;46.634;14.318;2023-08-17T15:17:33;35.40;28.90
15217;DHT22;7711;46.634;14.318;2023-08-17T15:20:00;35.90;25.80
15217;DHT22;7711;46.634;14.318;2023-08-17T15:22:28;36.10;19.50
15217;DHT22;7711;46.634;14.318;2023-08-17T15:24:55;35.80;19.80
15217;DHT22;7711;46.634;14.318;2023-08-17T15:27:22;35.40;21.60
15217;DHT22;7711;46.634;14.318;2023-08-17T15:29:51;35.40;19.80
15217;DHT22;7711;46.634;14.318;2023-08-17T15:32:19;35.10;20.00
15217;DHT22;7711;46.634;14.318;2023-08-17T15:34:46;35.60;19.30
15217;DHT22;7711;46.634;14.318;2023-08-17T15:37:14;35.60;19.20
15217;DHT22;7711;46.634;14.318;2023-08-17T15:39:41;34.20;17.50